Flight Track Log - Related Links

Times and Time Zones

All times are in EDT time to prevent confusion due to time zone crossing. See the SWA1046 flight status page for this flight to view local times or setup timezone preferences in your user account.

Time Position Orientation Groundspeed Altitude Reporting Facility
EDT Latitude Longitude Course Direction KTS MPH feet Rate Location/Type
Wed 09:22:44 PM 41.7500 -87.7833 217° Southwest 165 190 3,700  Level Chicago TRACON
Wed 09:23:32 PM 41.7000 -87.8333 217° Southwest 232 267 5,900 2,828 Climbing Chicago TRACON
Wed 09:25:38 PM 41.5544 -87.8617 188° South 291 335 11,900 2,521 Climbing Chicago Center
Wed 09:26:40 PM 41.4653 -87.8725 185° South 319 367 13,800 2,516 Climbing Chicago Center
Wed 09:27:42 PM 41.3642 -87.8831 184° South 355 409 17,100 3,081 Climbing Chicago Center
Wed 09:29:45 PM 41.1258 -87.8894 181° South 393 452 23,300 2,757 Climbing Chicago Center
Wed 09:30:47 PM 41.0128 -87.8853 178° South 404 465 25,600 2,146 Climbing Chicago Center
Wed 09:31:48 PM 40.8967 -87.8806 178° South 415 478 27,700 1,951 Climbing Chicago Center
Wed 09:32:50 PM 40.7792 -87.8781 179° South 422 486 29,600 1,694 Climbing Chicago Center
Wed 09:33:52 PM 40.6606 -87.8736 178° South 427 491 31,200 1,756 Climbing Chicago Center
Wed 09:34:53 PM 40.5422 -87.8694 178° South 428 493 33,200 1,805 Climbing Chicago Center
Wed 09:35:55 PM 40.4006 -87.8656 179° South 424 488 34,900 1,500 Climbing Chicago Center
Wed 09:36:57 PM 40.2833 -87.8619 179° South 423 487 36,300 1,279 Climbing Chicago Center
Wed 09:37:57 PM 40.1731 -87.8392 171° South 439 505 37,500 843 Climbing Indianapolis Center
Wed 09:38:58 PM 40.0533 -87.8022 167° South 442 509 38,000 244 Climbing Indianapolis Center
Wed 09:40:00 PM 39.9128 -87.7589 167° South 444 511 38,000  Level Indianapolis Center
Wed 09:41:01 PM 39.7919 -87.7236 167° South 443 510 38,000  Level Indianapolis Center
Wed 09:42:02 PM 39.6714 -87.6878 167° South 443 510 38,000 390 Level Indianapolis Center
Wed 09:43:04 PM 39.5497 -87.6519 167° South 445 512 38,800 488 Climbing Indianapolis Center
Wed 09:44:05 PM 39.4292 -87.6153 167° South 444 511 39,000 98 Climbing Indianapolis Center
Wed 09:45:07 PM 39.3100 -87.5800 167° South 441 507 39,000  Level Indianapolis Center
Wed 09:46:08 PM 39.1900 -87.5436 167° South 440 506 39,000  Level Indianapolis Center
Wed 09:47:09 PM 39.0706 -87.5094 167° South 438 504 39,000  Level Indianapolis Center
Wed 09:48:11 PM 38.9508 -87.4750 167° South 439 505 39,000  Level Indianapolis Center
Wed 09:49:12 PM 38.8314 -87.4389 167° South 440 506 39,000  Level Indianapolis Center
Wed 09:50:13 PM 38.7108 -87.4044 167° South 442 509 39,000  Level Indianapolis Center
Wed 09:51:15 PM 38.5675 -87.3631 167° South 439 505 39,000  Level Indianapolis Center
Wed 09:52:16 PM 38.4497 -87.3289 167° South 436 502 39,000  Level Indianapolis Center
Wed 09:53:17 PM 38.3322 -87.2944 167° South 439 505 39,000  Level Indianapolis Center
Wed 09:54:19 PM 38.2158 -87.2614 167° South 436 502 39,000  Level Indianapolis Center
Wed 09:55:20 PM 38.0981 -87.2283 168° South 438 504 39,000  Level Indianapolis Center
Wed 09:56:22 PM 37.9783 -87.1942 167° South 442 509 39,000  Level Indianapolis Center
Wed 09:57:23 PM 37.8583 -87.1600 167° South 441 507 39,000  Level Indianapolis Center
Wed 09:58:24 PM 37.7144 -87.1186 167° South 441 507 39,000  Level Indianapolis Center
Wed 09:59:25 PM 37.5964 -87.0853 167° South 434 499 39,000  Level Indianapolis Center
Wed 09:59:45 PM 37.5550 -87.0767 171° South 443 510 39,000  Level Memphis Center
Wed 10:00:45 PM 37.4417 -87.0450 167° South 438 504 39,000  Level Memphis Center
Wed 10:01:45 PM 37.3242 -87.0106 167° South 427 491 39,000  Level Memphis Center
Wed 10:02:45 PM 37.2089 -86.9842 170° South 427 491 39,000  Level Memphis Center
Wed 10:03:45 PM 37.0964 -86.9786 178° South 422 486 39,000  Level Memphis Center
Wed 10:04:45 PM 36.9942 -86.9753 179° South 417 480 39,000  Level Memphis Center
Wed 10:05:45 PM 36.8836 -86.9694 178° South 412 474 39,000  Level Memphis Center
Wed 10:06:45 PM 36.7708 -86.9689 180° South 406 467 39,000  Level Memphis Center
Wed 10:07:45 PM 36.6542 -86.9636 178° South 406 467 39,000  Level Memphis Center
Wed 10:08:45 PM 36.5414 -86.9631 180° South 406 467 39,000  Level Memphis Center
Wed 10:09:45 PM 36.4244 -86.9525 176° South 415 478 39,000  Level Memphis Center
Wed 10:10:45 PM 36.2936 -86.8886 159° South 429 494 39,000  Level Memphis Center
Wed 10:11:45 PM 36.1708 -86.8244 157° South 463 533 39,000  Level Memphis Center
Wed 10:12:45 PM 36.0711 -86.7697 156° South 468 539 39,000  Level Memphis Center
Wed 10:13:45 PM 35.9525 -86.7056 156° South 457 526 39,000  Level Memphis Center
Wed 10:15:41 PM 35.7108 -86.5758 156° South 475 547 39,000  Level Atlanta Center
Wed 10:16:41 PM 35.5911 -86.5108 156° South 475 547 39,000  Level Atlanta Center
Wed 10:17:41 PM 35.4714 -86.4486 157° South 475 547 39,000  Level Atlanta Center
Wed 10:18:41 PM 35.3536 -86.3867 157° South 470 541 39,000  Level Atlanta Center
Wed 10:19:41 PM 35.2361 -86.3222 156° South 470 541 39,000  Level Atlanta Center
Wed 10:20:41 PM 35.1347 -86.2661 156° South 465 535 39,000  Level Atlanta Center
Wed 10:21:41 PM 35.0128 -86.2044 157° South 465 535 39,000  Level Atlanta Center
Wed 10:22:41 PM 34.8950 -86.1433 157° South 465 535 39,000  Level Atlanta Center
Wed 10:23:41 PM 34.7750 -86.0819 157° South 465 535 39,000  Level Atlanta Center
Wed 10:24:41 PM 34.6611 -86.0186 155° Southeast 465 535 39,000  Level Atlanta Center
Wed 10:25:41 PM 34.5411 -85.9578 157° South 465 535 39,000  Level Atlanta Center
Wed 10:26:41 PM 34.4231 -85.8972 157° South 465 535 39,000  Level Atlanta Center
Wed 10:27:41 PM 34.3031 -85.8367 157° South 465 535 39,000  Level Atlanta Center
Wed 10:28:41 PM 34.1889 -85.7842 159° South 459 528 39,000  Level Atlanta Center
Wed 10:29:41 PM 34.0708 -85.7214 156° South 459 528 39,000  Level Atlanta Center
Wed 10:30:41 PM 33.9506 -85.6617 158° South 454 522 39,000  Level Atlanta Center
Wed 10:31:41 PM 33.8344 -85.6019 157° South 459 528 39,000  Level Atlanta Center
Wed 10:32:41 PM 33.7036 -85.5394 158° South 453 521 39,000  Level Atlanta Center
Wed 10:33:41 PM 33.5833 -85.4775 157° South 453 521 39,000  Level Atlanta Center
Wed 10:34:41 PM 33.4650 -85.4183 157° South 458 527 39,000  Level Atlanta Center
Wed 10:35:41 PM 33.3447 -85.3567 157° South 468 539 39,000  Level Atlanta Center
Wed 10:36:41 PM 33.2222 -85.2953 157° South 473 544 39,000  Level Atlanta Center
Wed 10:37:41 PM 33.1017 -85.2389 159° South 473 544 39,000  Level Atlanta Center
Wed 10:38:41 PM 32.9833 -85.1731 155° Southeast 473 544 39,000  Level Atlanta Center
Wed 10:39:41 PM 32.8583 -85.1467 170° South 473 544 39,000  Level Atlanta Center
Wed 10:40:41 PM 32.7481 -85.1008 161° South 468 539 39,000  Level Atlanta Center
Wed 10:41:41 PM 32.6192 -85.0572 164° South 462 532 39,000  Level Atlanta Center
Wed 10:42:41 PM 32.5025 -85.0167 164° South 462 532 39,000  Level Atlanta Center
Wed 10:43:41 PM 32.3775 -84.9758 165° South 468 539 39,000  Level Atlanta Center
Wed 10:45:40 PM 32.1236 -84.8919 164° South 489 563 39,000  Level Jacksonville Center
Wed 10:46:40 PM 31.9992 -84.8475 163° South 483 556 39,000  Level Jacksonville Center
Wed 10:47:40 PM 31.8786 -84.8106 165° South 466 536 39,000  Level Jacksonville Center
Wed 10:48:40 PM 31.7539 -84.7689 164° South 461 531 39,000  Level Jacksonville Center
Wed 10:49:40 PM 31.6292 -84.7300 165° South 461 531 39,000  Level Jacksonville Center
Wed 10:50:40 PM 31.5044 -84.6861 163° South 461 531 39,000  Level Jacksonville Center
Wed 10:51:40 PM 31.3797 -84.6472 165° South 461 531 39,000  Level Jacksonville Center
Wed 10:52:40 PM 31.2550 -84.6058 164° South 466 536 39,000  Level Jacksonville Center
Wed 10:53:40 PM 31.1158 -84.5597 164° South 476 548 39,000  Level Jacksonville Center
Wed 10:54:40 PM 30.9889 -84.5186 164° South 476 548 39,000  Level Jacksonville Center
Wed 10:55:40 PM 30.8622 -84.4753 164° South 476 548 39,000  Level Jacksonville Center
Wed 10:56:40 PM 30.7375 -84.4344 164° South 471 542 39,000  Level Jacksonville Center
Wed 10:57:40 PM 30.6106 -84.3939 165° South 471 542 39,000  Level Jacksonville Center
Wed 10:58:40 PM 30.4964 -84.3367 157° South 478 550 39,000  Level Jacksonville Center
Wed 10:59:40 PM 30.3719 -84.2553 151° Southeast 478 550 39,000  Level Jacksonville Center
Wed 11:00:40 PM 30.2497 -84.1767 151° Southeast 485 558 39,000  Level Jacksonville Center
Wed 11:01:40 PM 30.1314 -84.0983 150° Southeast 490 564 39,000  Level Jacksonville Center
Wed 11:02:40 PM 30.0111 -84.0175 150° Southeast 496 571 39,000  Level Jacksonville Center
Wed 11:03:40 PM 29.8886 -83.9394 151° Southeast 496 571 39,000  Level Jacksonville Center
Wed 11:04:40 PM 29.7700 -83.8639 151° Southeast 496 571 39,000  Level Jacksonville Center
Wed 11:05:40 PM 29.6600 -83.7936 151° Southeast 496 571 39,000  Level Jacksonville Center
Wed 11:06:40 PM 29.5372 -83.7136 150° Southeast 496 571 39,000  Level Jacksonville Center
Wed 11:07:40 PM 29.4167 -83.6389 152° Southeast 496 571 39,000  Level Jacksonville Center
Wed 11:08:40 PM 29.2961 -83.5592 150° Southeast 496 571 39,000  Level Jacksonville Center
Wed 11:09:40 PM 29.1753 -83.4800 150° Southeast 496 571 39,000  Level Jacksonville Center
Wed 11:10:40 PM 29.0506 -83.4033 152° Southeast 496 571 39,000  Level Jacksonville Center
Wed 11:11:40 PM 28.9297 -83.3314 152° Southeast 496 571 39,000 -393 Level Jacksonville Center
Wed 11:13:28 PM 28.6967 -83.2444 162° South 484 557 37,900 -1,293 Descending Miami Center
Wed 11:14:27 PM 28.5692 -83.1992 163° South 484 557 35,400 -2,410 Descending Miami Center
Wed 11:15:30 PM 28.4419 -83.1542 163° South 479 551 33,000 -2,231 Descending Miami Center
Wed 11:16:28 PM 28.3208 -83.1097 162° South 469 540 30,900 -2,034 Descending Miami Center
Wed 11:17:28 PM 28.2058 -83.0681 162° South 456 525 29,000 -1,884 Descending Miami Center
Wed 11:18:29 PM 28.0931 -83.0267 162° South 442 509 27,100 -1,008 Descending Miami Center
Wed 11:19:27 PM 27.9886 -82.9808 159° South 426 490 27,000 -50 Descending Miami Center
Wed 11:20:29 PM 27.8822 -82.9331 158° South 414 476 27,000  Level Miami Center
Wed 11:21:30 PM 27.7869 -82.8692 149° Southeast 409 471 27,000 -153 Level Miami Center
Wed 11:22:27 PM 27.6750 -82.8025 152° Southeast 409 471 26,700 -655 Descending Miami Center
Wed 11:23:29 PM 27.5811 -82.7483 153° Southeast 414 476 25,700 -1,366 Descending Miami Center
Wed 11:24:30 PM 27.4836 -82.6872 151° Southeast 414 476 23,900 -1,932 Descending Miami Center
Wed 11:25:27 PM 27.3794 -82.6258 152° Southeast 392 451 21,900 -1,897 Descending Miami Center
Wed 11:26:27 PM 27.2858 -82.5697 152° Southeast 387 445 20,200 -1,700 Descending Miami Center
Wed 11:27:27 PM 27.1919 -82.5161 153° Southeast 377 434 18,500 -1,475 Descending Miami Center
Wed 11:28:29 PM 27.1103 -82.4725 155° Southeast 377 434 17,200 -1,500 Descending Miami Center
Wed 11:29:27 PM 27.0244 -82.4217 152° Southeast 365 420 15,500 -1,714 Descending Miami Center
Wed 11:30:28 PM 26.9408 -82.3711 152° Southeast 354 407 13,800 -1,686 Descending Miami Center
Wed 11:31:28 PM 26.8611 -82.3256 153° Southeast 334 384 12,100 -1,550 Descending Miami Center
Wed 11:32:28 PM 26.7836 -82.2778 151° Southeast 327 376 10,700 -1,339 Descending Miami Center
Wed 11:33:29 PM 26.7147 -82.2211 144° Southeast 316 364 9,400 -1,328 Descending Miami Center
Wed 11:34:30 PM 26.6478 -82.1692 145° Southeast 305 351 8,000 -1,373 Descending Miami Center
Wed 11:35:27 PM 26.5958 -82.1042 132° Southeast 292 336 6,700 -1,385 Descending Miami Center
Wed 11:36:27 PM 26.5525 -82.0328 124° Southeast 282 325 5,300 -1,350 Descending Miami Center
Wed 11:37:27 PM 26.5111 -81.9658 125° Southeast 276 318 4,000 -1,300 Descending Miami Center
Wed 11:39:00 PM 26.4551 -81.8637 56° Northeast  Level FlightAware Approximate
Wed 11:46:00 PM 26.5333 -81.7500 50° Northeast  Level FlightAware Approximate
Wed 11:47:00 PM 26.5362 -81.7552 50° Northeast  Level Estimated
Wed 11:48:00 PM 26.5333 -81.7500 50° Northeast  Level FlightAware Approximate
Wed 11:49:00 PM 26.5362 -81.7552 50° Northeast  Level Estimated
Wed 11:50:00 PM 26.5333 -81.7500 50° Northeast  Level FlightAware Approximate
Wed 11:51:00 PM 26.5362 -81.7552 50° Northeast  Level Estimated

Login

Don't have an account? Register now (free) for customized features, flight alerts, and more!